Time;durP1;ratioP1;P1;durP2;ratioP2;P2;SDS_P1;SDS_P2;PMS_P1;PMS_P2;Temp;Humidity;BMP_temperature;BMP_pressure;BME280_temperature;BME280_humidity;BME280_pressure;Samples;Min_cycle;Max_cycle;Signal;HPM_P1;HPM_P2
2023/03/17 00:02:16;;;;;;;2.35;1.80;;;;;;;5.96;100.00;100953.19;5033626;28;20028;-68
2023/03/17 00:04:42;;;;;;;2.53;1.90;;;;;;;5.88;100.00;100927.88;5032342;28;20033;-68
2023/03/17 00:07:10;;;;;;;4.45;2.13;;;;;;;6.12;100.00;100970.09;5034007;28;20021;-67
2023/03/17 00:09:35;;;;;;;2.80;2.20;;;;;;;6.10;100.00;100939.78;5033223;28;20041;-68
2023/03/17 00:12:01;;;;;;;3.10;2.42;;;;;;;5.96;100.00;100945.63;5033112;28;20034;-68
2023/03/17 00:14:26;;;;;;;3.60;2.65;;;;;;;6.11;100.00;100981.03;5033489;28;20403;-68
2023/03/17 00:16:52;;;;;;;2.80;2.35;;;;;;;5.77;100.00;100934.53;5064903;28;20126;-68
2023/03/17 00:19:28;;;;;;;3.25;2.42;;;;;;;6.03;100.00;100982.66;5031961;28;20037;-67
2023/03/17 00:21:54;;;;;;;3.22;2.53;;;;;;;6.06;100.00;100987.75;5033622;28;20030;-68
2023/03/17 00:24:20;;;;;;;3.60;3.00;;;;;;;5.62;100.00;100903.31;5032170;28;20154;-68
2023/03/17 00:26:45;;;;;;;5.05;3.00;;;;;;;5.87;100.00;100968.25;5032713;28;20038;-68
2023/03/17 00:29:12;;;;;;;4.43;3.35;;;;;;;6.05;100.00;100991.09;5033370;28;20034;-68
2023/03/17 00:31:38;;;;;;;4.93;3.13;;;;;;;5.83;100.00;100951.38;5033015;28;20033;-67
2023/03/17 00:34:06;;;;;;;4.93;3.35;;;;;;;6.05;100.00;100984.38;5033457;28;20041;-68
2023/03/17 00:36:34;;;;;;;4.85;3.65;;;;;;;5.95;100.00;101002.81;5032147;28;20041;-68
2023/03/17 00:39:00;;;;;;;5.10;3.92;;;;;;;5.56;100.00;100939.41;5031492;28;20033;-68
2023/03/17 00:41:26;;;;;;;4.45;3.63;;;;;;;5.93;100.00;101004.47;5031859;28;20477;-68
2023/03/17 00:43:51;;;;;;;4.53;3.33;;;;;;;5.50;100.00;100919.19;5033303;28;20033;-68
2023/03/17 00:46:26;;;;;;;6.53;3.97;;;;;;;5.73;100.00;100967.28;5032778;28;20033;-68
2023/03/17 00:48:51;;;;;;;5.80;3.90;;;;;;;5.93;100.00;101027.19;5032553;28;20411;-68
2023/03/17 00:51:17;;;;;;;5.00;3.80;;;;;;;6.07;100.00;101010.47;5040323;28;20025;-68
2023/03/17 00:53:42;;;;;;;4.90;4.00;;;;;;;6.04;100.00;101024.75;5050532;28;20138;-68
2023/03/17 00:56:14;;;;;;;4.93;3.78;;;;;;;5.83;100.00;100977.47;5052203;28;20017;-68
2023/03/17 00:58:40;;;;;;;5.32;3.92;;;;;;;6.00;100.00;101018.81;5052735;28;20048;-67
2023/03/17 01:01:05;;;;;;;5.85;4.65;;;;;;;5.96;100.00;101032.25;5051537;28;20056;-67
2023/03/17 01:03:31;;;;;;;5.63;4.47;;;;;;;6.11;100.00;101014.69;5051102;28;20112;-68
2023/03/17 01:05:58;;;;;;;5.57;4.15;;;;;;;5.94;100.00;101017.94;5050969;28;20033;-68
2023/03/17 01:08:25;;;;;;;5.35;4.30;;;;;;;5.56;100.00;100982.28;5052278;28;20040;-68
2023/03/17 01:10:51;;;;;;;6.15;4.70;;;;;;;5.91;100.00;101031.38;5050951;28;20036;-68
2023/03/17 01:13:16;;;;;;;5.97;4.40;;;;;;;5.75;100.00;100993.34;5052247;28;20029;-67
2023/03/17 01:15:45;;;;;;;6.28;4.45;;;;;;;5.92;100.00;101038.09;5051974;28;20036;-67
2023/03/17 01:18:13;;;;;;;6.85;4.97;;;;;;;5.95;100.00;101027.19;5050697;28;20032;-67
2023/03/17 01:20:39;;;;;;;6.55;4.68;;;;;;;5.69;100.00;100979.03;5052292;28;20123;-67
2023/03/17 01:23:05;;;;;;;5.70;4.60;;;;;;;5.37;100.00;100946.81;5051906;28;20029;-67
2023/03/17 01:25:32;;;;;;;5.57;4.80;;;;;;;6.05;100.00;101034.00;5050029;28;20037;-67
2023/03/17 01:27:58;;;;;;;6.60;5.15;;;;;;;5.97;100.00;101041.53;5051886;28;20031;-67
2023/03/17 01:30:30;;;;;;;6.25;5.00;;;;;;;5.88;100.00;101028.00;5050346;28;20083;-67
2023/03/17 01:32:56;;;;;;;;;;;;;;;5.96;100.00;101041.50;5050882;28;20036;-67
2023/03/17 01:35:23;;;;;;;5.93;4.30;;;;;;;5.62;100.00;100989.91;5052230;28;19917;-68
2023/03/17 01:37:49;;;;;;;7.35;4.85;;;;;;;5.63;100.00;100990.72;5050678;28;20143;-67
2023/03/17 01:40:21;;;;;;;5.72;4.20;;;;;;;5.70;100.00;101000.06;5050242;28;20043;-67
2023/03/17 01:43:01;;;;;;;4.45;3.25;;;;;;;5.62;100.00;100987.38;5050385;28;20494;-67
2023/03/17 01:46:03;;;;;;;5.82;4.53;;;;;;;6.01;100.00;101044.91;5052062;28;20091;-67
2023/03/17 01:48:36;;;;;;;5.57;4.45;;;;;;;5.94;100.00;101035.59;5050356;28;20025;-67
2023/03/17 01:51:03;;;;;;;6.32;4.80;;;;;;;5.96;100.00;101037.28;5050275;28;20025;-67
2023/03/17 01:53:28;;;;;;;6.35;4.88;;;;;;;5.78;100.00;101036.28;5049862;28;20479;-67
2023/03/17 01:55:56;;;;;;;7.97;4.47;;;;;;;5.91;100.00;101038.09;5051499;28;20114;-67
2023/03/17 01:58:23;;;;;;;5.47;4.50;;;;;;;5.57;100.00;101004.13;5049952;28;20411;-68
2023/03/17 02:00:49;;;;;;;6.40;4.38;;;;;;;5.90;100.00;101037.25;5050855;28;20090;-67
2023/03/17 02:03:16;;;;;;;5.60;4.40;;;;;;;5.83;100.00;101044.72;5051402;28;20025;-67
2023/03/17 02:05:42;;;;;;;6.88;4.78;;;;;;;5.66;100.00;101013.47;5049716;28;20086;-67
2023/03/17 02:08:13;;;;;;;5.97;4.53;;;;;;;5.84;100.00;101049.81;5051545;28;20409;-68
2023/03/17 02:10:40;;;;;;;6.10;4.40;;;;;;;5.63;100.00;101018.47;5051464;28;20106;-67
2023/03/17 02:13:09;;;;;;;7.53;4.75;;;;;;;5.77;100.00;101048.03;5051138;28;20395;-67
2023/03/17 02:15:47;;;;;;;6.20;4.00;;;;;;;5.91;100.00;101075.94;5050972;28;20440;-67
2023/03/17 02:18:13;;;;;;;5.60;4.28;;;;;;;5.54;100.00;101020.94;5051019;28;20036;-67
2023/03/17 02:20:39;;;;;;;5.57;4.50;;;;;;;5.93;100.00;101067.56;5049325;28;20051;-66
2023/03/17 02:23:06;;;;;;;5.63;3.95;;;;;;;5.79;100.00;101078.31;5049671;28;20495;-67
2023/03/17 02:25:34;;;;;;;6.20;4.22;;;;;;;5.67;100.00;101060.53;5049383;28;20064;-67
2023/03/17 02:28:09;;;;;;;6.80;4.38;;;;;;;5.53;100.00;101012.50;5049117;28;20071;-67
2023/03/17 02:30:36;;;;;;;7.20;4.53;;;;;;;5.57;100.00;101041.97;5048633;28;20041;-67
2023/03/17 02:33:02;;;;;;;5.47;4.60;;;;;;;5.55;100.00;101037.72;5050969;28;20029;-67
2023/03/17 02:35:28;;;;;;;6.88;4.63;;;;;;;5.82;100.00;101076.66;5050610;28;20033;-67
2023/03/17 02:37:53;;;;;;;5.22;4.07;;;;;;;5.71;100.00;101073.22;5050661;28;20044;-67
2023/03/17 02:40:19;;;;;;;5.30;4.07;;;;;;;5.70;100.00;101069.00;5049936;28;20037;-66
2023/03/17 02:42:45;;;;;;;6.55;4.22;;;;;;;5.78;100.00;101064.03;5050551;28;20025;-67
2023/03/17 02:45:12;;;;;;;6.25;4.30;;;;;;;5.73;100.00;101089.22;5048980;28;20191;-67
2023/03/17 02:47:37;;;;;;;5.10;4.00;;;;;;;5.45;100.00;101035.97;5050773;28;20029;-67
2023/03/17 02:50:05;;;;;;;5.07;4.00;;;;;;;5.83;100.00;101096.06;5040238;28;20124;-67
2023/03/17 02:52:30;;;;;;;4.43;3.92;;;;;;;5.66;100.00;101086.63;5029236;28;20080;-67
2023/03/17 02:54:56;;;;;;;7.05;3.97;;;;;;;5.64;100.00;101075.66;5030499;28;20049;-68
2023/03/17 02:57:22;;;;;;;4.88;3.83;;;;;;;5.67;100.00;101085.78;5030669;28;20025;-67
2023/03/17 02:59:48;;;;;;;6.35;3.55;;;;;;;5.39;100.00;101051.88;5030680;28;20036;-68
2023/03/17 03:02:14;;;;;;;4.22;3.78;;;;;;;5.73;100.00;101090.88;5031020;28;20092;-68
2023/03/17 03:04:40;;;;;;;5.47;3.90;;;;;;;5.63;100.00;101095.00;5029526;28;20484;-68
2023/03/17 03:07:06;;;;;;;6.18;3.67;;;;;;;5.55;100.00;101073.03;5030529;28;20071;-68
2023/03/17 03:09:31;;;;;;;4.75;3.85;;;;;;;5.58;100.00;101088.22;5030557;28;20064;-68
2023/03/17 03:11:57;;;;;;;6.65;3.88;;;;;;;5.27;100.00;101050.06;5030954;28;20029;-68
2023/03/17 03:14:22;;;;;;;4.55;3.42;;;;;;;5.38;100.00;101057.75;5029238;28;20512;-68
2023/03/17 03:16:49;;;;;;;5.03;3.75;;;;;;;5.61;100.00;101103.38;5030423;28;20087;-68
2023/03/17 03:19:15;;;;;;;4.68;3.42;;;;;;;5.27;100.00;101049.22;5029293;28;20503;-69
2023/03/17 03:21:41;;;;;;;5.63;3.95;;;;;;;5.52;100.00;101094.06;5029460;28;20032;-68
2023/03/17 03:24:08;;;;;;;5.07;3.30;;;;;;;5.37;100.00;101096.38;5033944;28;20483;-68
2023/03/17 03:26:33;;;;;;;5.78;3.63;;;;;;;5.19;100.00;101049.13;5050270;28;20033;-68
2023/03/17 03:28:59;;;;;;;4.85;3.30;;;;;;;5.43;100.00;101088.06;5049077;28;20083;-68
2023/03/17 03:31:25;;;;;;;5.72;3.63;;;;;;;5.54;100.00;101121.81;5050353;28;20344;-68
2023/03/17 03:33:52;;;;;;;4.88;3.50;;;;;;;5.48;100.00;101109.13;5049338;28;20507;-68
2023/03/17 03:36:18;;;;;;;8.65;4.60;;;;;;;5.44;100.00;101105.72;5050961;28;20033;-67
2023/03/17 03:38:43;;;;;;;8.25;3.92;;;;;;;5.49;100.00;101106.59;5050367;28;20025;-68
2023/03/17 03:41:10;;;;;;;6.90;4.00;;;;;;;5.35;100.00;101089.66;5048761;28;20017;-67
2023/03/17 03:43:35;;;;;;;7.78;4.45;;;;;;;5.08;100.00;101050.72;5048979;28;20028;-67
2023/03/17 03:46:01;;;;;;;6.30;3.92;;;;;;;5.51;100.00;101101.56;5049773;28;20029;-68
2023/03/17 03:48:26;;;;;;;4.40;3.10;;;;;;;5.43;100.00;101098.16;5050024;28;20040;-68
2023/03/17 03:50:57;;;;;;;5.18;3.60;;;;;;;5.47;100.00;101089.78;5048717;28;20040;-68
2023/03/17 03:53:22;;;;;;;4.95;3.20;;;;;;;5.32;100.00;101079.53;5052645;28;20052;-67
2023/03/17 03:55:48;;;;;;;4.18;3.03;;;;;;;5.35;100.00;101072.84;5052451;28;20499;-68
2023/03/17 03:58:13;;;;;;;4.60;3.05;;;;;;;5.61;100.00;101105.88;5052584;28;20045;-68
2023/03/17 04:00:39;;;;;;;5.05;3.17;;;;;;;5.18;100.00;101052.50;5054014;28;20035;-68
2023/03/17 04:03:04;;;;;;;6.10;3.55;;;;;;;5.28;100.00;101074.47;5053807;28;20029;-67
2023/03/17 04:05:30;;;;;;;4.38;3.15;;;;;;;5.10;100.00;101059.13;5051643;28;20029;-67
2023/03/17 04:07:55;;;;;;;5.25;2.90;;;;;;;5.40;100.00;101086.34;5053334;28;20442;-68
2023/03/17 04:10:21;;;;;;;3.47;2.75;;;;;;;5.19;100.00;101094.50;5051890;28;20419;-67
2023/03/17 04:12:47;;;;;;;4.32;2.85;;;;;;;5.43;100.00;101096.44;5053369;28;20475;-68
2023/03/17 04:15:15;;;;;;;7.43;2.83;;;;;;;5.37;100.00;101095.56;5053845;28;20025;-69
2023/03/17 04:17:41;;;;;;;3.17;2.30;;;;;;;4.93;100.00;101024.50;5053283;28;20025;-69
2023/03/17 04:20:07;;;;;;;3.58;2.20;;;;;;;5.62;100.00;101130.28;5053028;28;20461;-68
2023/03/17 04:22:33;;;;;;;4.78;2.60;;;;;;;5.24;100.00;101080.31;5051995;28;20037;-68
2023/03/17 04:24:58;;;;;;;3.47;2.40;;;;;;;5.66;100.00;101132.88;5053178;28;20033;-68
2023/03/17 04:27:25;;;;;;;3.10;2.35;;;;;;;5.32;100.00;101069.44;5052021;28;20055;-68
2023/03/17 04:29:51;;;;;;;3.25;2.40;;;;;;;5.00;100.00;101044.72;5051921;28;20453;-67
2023/03/17 04:32:17;;;;;;;5.88;2.80;;;;;;;5.60;100.00;101140.38;5051813;28;20032;-67
2023/03/17 04:34:42;;;;;;;3.85;2.50;;;;;;;5.32;100.00;101087.94;5053177;28;20025;-68
2023/03/17 04:37:10;;;;;;;4.28;2.28;;;;;;;5.34;100.00;101093.00;5049673;28;20407;-69
2023/03/17 04:39:36;;;;;;;4.22;2.50;;;;;;;5.52;100.00;101133.53;5052094;28;20036;-68
2023/03/17 04:42:01;;;;;;;3.28;2.22;;;;;;;5.55;100.00;101133.56;5053180;28;20041;-72
2023/03/17 04:44:27;;;;;;;4.75;2.92;;;;;;;5.73;100.00;101119.47;5053443;28;20032;-69
2023/03/17 04:46:53;;;;;;;6.05;3.05;;;;;;;5.23;100.00;101068.50;5052054;28;20209;-70
2023/03/17 04:49:20;;;;;;;5.78;3.38;;;;;;;5.33;100.00;101074.50;5053367;28;20445;-69
2023/03/17 04:51:45;;;;;;;4.38;2.90;;;;;;;5.57;100.00;101115.09;5051918;28;20029;-70
2023/03/17 04:54:11;;;;;;;4.22;2.78;;;;;;;5.60;100.00;101124.38;5045078;28;20056;-70
2023/03/17 04:56:38;;;;;;;3.70;2.50;;;;;;;5.60;100.00;101117.69;5053071;28;20119;-69
2023/03/17 04:59:04;;;;;;;4.15;2.58;;;;;;;5.30;100.00;101079.53;5052425;28;20021;-68
2023/03/17 05:01:30;;;;;;;3.70;2.15;;;;;;;5.42;100.00;101086.38;5052172;28;20180;-68
2023/03/17 05:03:55;;;;;;;4.97;2.70;;;;;;;5.45;100.00;101089.75;5050878;28;20032;-68
2023/03/17 05:06:22;;;;;;;5.82;3.22;;;;;;;5.72;100.00;101112.75;5052812;28;20112;-69
2023/03/17 05:08:47;;;;;;;4.70;2.67;;;;;;;5.69;100.00;101114.38;5050084;28;20044;-69
2023/03/17 05:11:13;;;;;;;5.53;2.10;;;;;;;5.64;100.00;101121.91;5052307;28;20033;-69
2023/03/17 05:13:39;;;;;;;4.05;2.63;;;;;;;5.77;100.00;101121.19;5050617;28;20102;-69
2023/03/17 05:16:07;;;;;;;4.40;2.67;;;;;;;5.78;100.00;101122.06;5050773;28;20090;-68
2023/03/17 05:18:34;;;;;;;3.80;2.40;;;;;;;5.57;100.00;101077.28;5052288;28;20450;-68
2023/03/17 05:21:00;;;;;;;3.30;2.30;;;;;;;5.88;100.00;101126.41;5052041;28;20029;-68
2023/03/17 05:23:25;;;;;;;4.30;2.60;;;;;;;5.70;100.00;101063.13;5048072;28;20029;-66
2023/03/17 05:25:51;;;;;;;6.03;2.67;;;;;;;5.49;100.00;101014.97;5051991;28;20040;-66
2023/03/17 05:28:19;;;;;;;3.53;1.92;;;;;;;6.21;100.00;101108.16;5051802;28;20403;-67
2023/03/17 05:30:46;;;;;;;2.58;1.92;;;;;;;6.19;100.00;101082.06;5051967;28;20494;-70
2023/03/17 05:33:13;;;;;;;5.13;2.25;;;;;;;6.07;100.00;101022.22;5051643;28;20606;-67
2023/03/17 05:35:39;;;;;;;5.85;2.10;;;;;;;6.41;100.00;101073.78;5051680;28;20064;-69
2023/03/17 05:38:05;;;;;;;3.00;1.75;;;;;;;6.27;100.00;101035.84;5050648;28;20024;-69
2023/03/17 05:40:31;;;;;;;3.20;1.70;;;;;;;6.44;100.00;101010.69;5084137;28;20040;-69
2023/03/17 05:42:56;;;;;;;3.65;2.00;;;;;;;6.41;100.00;100971.13;5049672;28;20033;-68
2023/03/17 05:45:22;;;;;;;6.07;2.00;;;;;;;7.23;100.00;101012.66;5050627;28;20040;-67
2023/03/17 05:47:48;;;;;;;6.18;2.65;;;;;;;6.58;100.00;100999.81;5043445;28;20551;-69
2023/03/17 05:50:13;;;;;;;2.70;1.83;;;;;;;6.52;100.00;100945.88;5031572;28;20124;-69
2023/03/17 05:52:39;;;;;;;3.95;2.10;;;;;;;6.51;100.00;100961.88;5030451;28;20030;-70
2023/03/17 05:55:06;;;;;;;3.72;1.83;;;;;;;6.47;100.00;100935.78;5031356;28;20114;-70
2023/03/17 05:57:32;;;;;;;3.83;1.60;;;;;;;6.45;100.00;100881.91;5031453;28;20406;-69
2023/03/17 05:59:57;;;;;;;2.55;1.52;;;;;;;6.43;100.00;100837.28;5031160;28;20171;-70
2023/03/17 06:02:23;;;;;;;3.42;1.90;;;;;;;6.44;100.00;100806.97;5032067;28;20030;-70
2023/03/17 06:04:48;;;;;;;2.90;1.60;;;;;;;6.78;100.00;100803.66;5031588;28;20025;-70
2023/03/17 06:07:14;;;;;;;2.55;1.60;;;;;;;6.80;100.00;100728.69;5030353;28;20060;-69
2023/03/17 06:09:40;;;;;;;4.53;1.92;;;;;;;6.63;100.00;100689.13;5030999;28;20037;-70
2023/03/17 06:12:06;;;;;;;5.35;2.20;;;;;;;6.45;100.00;100639.47;5031908;28;20414;-69
2023/03/17 06:14:32;;;;;;;4.40;2.00;;;;;;;6.69;100.00;100652.06;5029270;28;20033;-69
2023/03/17 06:16:57;;;;;;;3.63;1.77;;;;;;;7.20;100.00;100635.06;5031233;28;20453;-70
2023/03/17 06:19:23;;;;;;;3.75;1.70;;;;;;;7.61;100.00;100628.13;5031499;28;20439;-69
2023/03/17 06:21:48;;;;;;;5.82;1.70;;;;;;;7.65;100.00;100591.84;5031421;28;20036;-71
2023/03/17 06:24:14;;;;;;;4.07;1.95;;;;;;;7.51;100.00;100588.53;5029691;28;20021;-69
2023/03/17 06:26:39;;;;;;;2.20;1.60;;;;;;;7.49;100.00;100529.53;5030657;28;20064;-69
2023/03/17 06:29:10;;;;;;;2.42;1.48;;;;;;;8.06;100.00;100526.53;5031137;28;20473;-69
2023/03/17 06:31:36;;;;;;;4.00;1.55;;;;;;;8.16;100.00;100480.03;5031089;28;20408;-70
2023/03/17 06:34:02;;;;;;;5.15;1.65;;;;;;;8.62;100.00;100434.78;5029427;28;20091;-69
2023/03/17 06:36:28;;;;;;;3.90;1.90;;;;;;;9.05;100.00;100384.34;5029110;28;20061;-69
2023/03/17 06:38:54;;;;;;;3.22;1.70;;;;;;;8.16;100.00;100290.13;5029264;28;20075;-69
2023/03/17 06:41:19;;;;;;;2.13;1.20;;;;;;;8.16;100.00;100231.88;5030681;28;20473;-69
2023/03/17 06:43:45;;;;;;;3.38;1.50;;;;;;;8.71;100.00;100268.22;5031058;28;20491;-70
2023/03/17 06:46:11;;;;;;;4.45;1.92;;;;;;;8.19;100.00;100219.19;5030816;28;20025;-70
2023/03/17 06:48:37;;;;;;;4.18;1.73;;;;;;;8.31;100.00;100239.31;5029599;28;20040;-70
2023/03/17 06:51:02;;;;;;;4.50;2.30;;;;;;;7.83;100.00;100227.28;5030104;28;20033;-69
2023/03/17 06:53:28;;;;;;;5.15;2.10;;;;;;;8.14;100.00;100245.44;5030767;28;20045;-68
2023/03/17 06:55:53;;;;;;;4.80;1.90;;;;;;;7.91;100.00;100230.56;5030285;28;20424;-69
2023/03/17 06:58:19;;;;;;;3.60;1.88;;;;;;;7.54;100.00;100239.47;5029199;28;20033;-69
2023/03/17 07:00:45;;;;;;;4.38;2.28;;;;;;;7.58;100.00;100281.56;5030368;28;20095;-69
2023/03/17 07:03:11;;;;;;;4.63;2.10;;;;;;;7.40;100.00;100251.41;5029441;28;20527;-69
2023/03/17 07:05:38;;;;;;;4.25;1.88;;;;;;;8.53;100.00;100286.28;5030291;28;20087;-69
2023/03/17 07:08:04;;;;;;;4.75;1.90;;;;;;;8.38;100.00;100280.56;5030445;28;20145;-69
2023/03/17 07:10:29;;;;;;;3.40;1.65;;;;;;;7.80;100.00;100243.34;5030624;28;20033;-69
2023/03/17 07:12:54;;;;;;;5.18;1.80;;;;;;;8.11;100.00;100264.03;5029154;28;20484;-69
2023/03/17 07:15:20;;;;;;;4.45;1.60;;;;;;;8.01;100.00;100228.72;5030502;28;20104;-69
2023/03/17 07:17:46;;;;;;;3.10;1.70;;;;;;;8.23;100.00;100212.38;5029085;28;20423;-69
2023/03/17 07:20:12;;;;;;;3.95;1.77;;;;;;;8.59;100.00;100177.22;5030642;28;20033;-70
2023/03/17 07:22:38;;;;;;;3.50;1.80;;;;;;;9.26;100.00;100193.75;5029067;28;20091;-69
2023/03/17 07:25:04;;;;;;;3.88;1.80;;;;;;;9.00;100.00;100087.75;5028859;28;20042;-70
2023/03/17 07:27:30;;;;;;;4.63;1.85;;;;;;;8.85;100.00;100135.38;5032547;28;20029;-71
2023/03/17 07:29:55;;;;;;;4.20;1.75;;;;;;;9.24;100.00;100111.78;5033866;28;20026;-71
2023/03/17 07:32:21;;;;;;;3.17;1.38;;;;;;;9.04;100.00;100063.16;5034461;28;20037;-70
2023/03/17 07:34:47;;;;;;;2.78;1.20;;;;;;;9.19;100.00;100061.13;5033096;28;20026;-70
2023/03/17 07:37:12;;;;;;;4.68;1.60;;;;;;;8.73;100.00;100043.47;5038626;28;20116;-70
2023/03/17 07:39:38;;;;;;;2.92;1.52;;;;;;;8.47;100.00;100006.84;5053129;28;20021;-71
2023/03/17 07:42:04;;;;;;;3.55;1.73;;;;;;;8.31;100.00;100003.78;5054462;28;20499;-70
2023/03/17 07:44:31;;;;;;;4.75;1.80;;;;;;;8.71;100.00;100065.47;5052457;28;20021;-70
2023/03/17 07:46:56;;;;;;;3.45;1.30;;;;;;;8.59;100.00;100035.34;5052328;28;20033;-71
2023/03/17 07:49:22;;;;;;;2.65;1.42;;;;;;;8.94;100.00;99971.25;5054526;28;20094;-70
2023/03/17 07:51:47;;;;;;;5.18;1.90;;;;;;;9.11;100.00;100011.47;5053866;28;20670;-71
2023/03/17 07:54:14;;;;;;;5.13;1.65;;;;;;;8.88;100.00;99955.31;5053874;28;20040;-70
2023/03/17 07:56:40;;;;;;;2.95;1.88;;;;;;;9.66;100.00;99950.97;5053919;28;20044;-70
2023/03/17 07:59:09;;;;;;;3.67;1.58;;;;;;;9.27;100.00;99979.81;5053740;28;20033;-70
2023/03/17 08:01:35;;;;;;;3.67;1.85;;;;;;;8.99;100.00;99953.41;5053726;28;20139;-69
2023/03/17 08:04:01;;;;;;;3.67;2.10;;;;;;;9.59;100.00;100008.63;5052250;28;20033;-70
2023/03/17 08:06:26;;;;;;;3.95;2.10;;;;;;;10.03;100.00;99994.03;5053856;28;20033;-72
2023/03/17 08:08:55;;;;;;;3.15;1.85;;;;;;;9.93;100.00;99937.56;5052434;28;20036;-70
2023/03/17 08:11:22;;;;;;;4.25;1.90;;;;;;;9.75;100.00;99916.88;5050392;28;20411;-70
2023/03/17 08:13:48;;;;;;;4.38;2.40;;;;;;;9.69;100.00;99968.63;5053303;28;20029;-70
2023/03/17 08:16:15;;;;;;;4.38;2.47;;;;;;;10.21;100.00;99946.16;5052256;28;20037;-70
2023/03/17 08:18:40;;;;;;;5.45;2.90;;;;;;;10.00;100.00;99916.19;5053618;28;20115;-71
2023/03/17 08:21:05;;;;;;;5.13;2.92;;;;;;;10.64;100.00;99957.66;5053449;28;20115;-71
2023/03/17 08:23:31;;;;;;;4.05;2.85;;;;;;;10.52;100.00;99963.91;5053635;28;20024;-71
2023/03/17 08:25:57;;;;;;;5.25;2.47;;;;;;;10.59;100.00;99973.06;5053383;28;20033;-71
2023/03/17 08:28:23;;;;;;;3.45;2.47;;;;;;;10.60;100.00;99897.63;5053649;28;20480;-70
2023/03/17 08:30:49;;;;;;;5.63;2.50;;;;;;;10.16;100.00;99917.47;5053476;28;20059;-70
2023/03/17 08:33:15;;;;;;;5.22;2.08;;;;;;;10.07;100.00;99907.56;5053743;28;20036;-70
2023/03/17 08:35:41;;;;;;;4.47;2.30;;;;;;;10.10;100.00;99888.91;5053492;28;20031;-71
2023/03/17 08:38:07;;;;;;;3.15;2.15;;;;;;;9.76;100.00;99888.94;5053368;28;20029;-71
2023/03/17 08:40:32;;;;;;;3.50;2.22;;;;;;;10.53;100.00;99889.34;5051957;28;20025;-71
2023/03/17 08:43:00;;;;;;;2.88;1.95;;;;;;;9.94;100.00;99875.75;5052369;28;20029;-71
2023/03/17 08:45:25;;;;;;;3.70;2.55;;;;;;;10.13;100.00;99889.66;5051699;28;20419;-71
2023/03/17 08:47:52;;;;;;;4.35;2.30;;;;;;;9.97;100.00;99878.19;5052593;28;20029;-71
2023/03/17 08:50:21;;;;;;;4.57;2.15;;;;;;;9.95;100.00;99834.25;5051800;28;20032;-70
2023/03/17 08:52:47;;;;;;;3.85;2.60;;;;;;;10.03;100.00;99847.56;5051352;28;20119;-70
2023/03/17 08:55:14;;;;;;;6.50;2.85;;;;;;;10.09;100.00;99844.00;5051703;28;20057;-71
2023/03/17 08:57:39;;;;;;;4.45;2.80;;;;;;;11.49;100.00;99875.25;5052944;28;20025;-70
2023/03/17 09:00:09;;;;;;;6.03;3.25;;;;;;;10.51;100.00;99865.69;5052674;28;20029;-70
2023/03/17 09:02:36;;;;;;;5.40;2.78;;;;;;;10.06;100.00;99832.22;5052973;28;20105;-70
2023/03/17 09:05:02;;;;;;;6.68;3.00;;;;;;;10.83;100.00;99896.06;5051557;28;20418;-71
2023/03/17 09:07:28;;;;;;;5.13;2.90;;;;;;;11.11;100.00;99916.41;5052867;28;20032;-70
2023/03/17 09:09:53;;;;;;;4.25;2.88;;;;;;;11.02;100.00;99909.88;5052316;28;20494;-70
2023/03/17 09:12:19;;;;;;;5.10;2.90;;;;;;;10.05;100.00;99829.72;5051575;28;20029;-70
2023/03/17 09:14:44;;;;;;;3.90;2.90;;;;;;;10.45;100.00;99866.69;5052391;28;20028;-70
2023/03/17 09:17:13;;;;;;;5.97;2.70;;;;;;;11.19;100.00;99872.00;5052269;28;20039;-71
2023/03/17 09:19:48;;;;;;;5.72;2.72;;;;;;;10.45;100.00;99799.78;5052595;28;20486;-71
2023/03/17 09:22:17;;;;;;;5.57;3.10;;;;;;;10.65;100.00;99822.06;5051438;28;20033;-70
2023/03/17 09:24:43;;;;;;;5.05;3.40;;;;;;;11.21;100.00;99839.72;5052092;28;20028;-71
2023/03/17 09:27:08;;;;;;;5.05;3.17;;;;;;;11.15;100.00;99842.44;5052178;28;20048;-70
2023/03/17 09:29:34;;;;;;;5.88;2.90;;;;;;;10.75;100.00;99805.63;5052468;28;20430;-71
2023/03/17 09:32:00;;;;;;;3.85;2.80;;;;;;;10.76;100.00;99842.88;5052430;28;20025;-69
2023/03/17 09:34:25;;;;;;;6.72;3.60;;;;;;;11.03;100.00;99836.94;5052399;28;20032;-70
2023/03/17 09:36:55;;;;;;;4.93;3.40;;;;;;;10.05;100.00;99744.22;5051527;28;20470;-70
2023/03/17 09:39:22;;;;;;;4.95;3.42;;;;;;;11.98;100.00;99861.72;5051954;28;20115;-70
2023/03/17 09:41:57;;;;;;;5.22;3.53;;;;;;;11.67;100.00;99848.38;5052344;28;20025;-70
2023/03/17 09:44:44;;;;;;;4.38;2.90;;;;;;;11.06;100.00;99824.94;5052130;28;20055;-70
2023/03/17 09:47:37;;;;;;;5.95;3.28;;;;;;;11.18;100.00;99804.19;5051951;28;20499;-70
2023/03/17 09:50:18;;;;;;;6.00;3.58;;;;;;;10.96;100.00;99793.06;5051719;28;20068;-70
2023/03/17 09:52:44;;;;;;;4.70;3.15;;;;;;;10.79;100.00;99784.31;5050116;28;20086;-70
2023/03/17 09:55:21;;;;;;;4.78;3.20;;;;;;;10.93;100.00;99765.19;5051248;28;20079;-70
2023/03/17 09:57:51;;;;;;;4.03;3.03;;;;;;;11.01;100.00;99805.63;5051571;28;20029;-71
2023/03/17 10:00:25;;;;;;;5.10;2.33;;;;;;;11.13;100.00;99802.69;5051493;28;20108;-70
2023/03/17 10:02:51;;;;;;;4.55;2.88;;;;;;;11.21;100.00;99694.69;5050677;28;20116;-70
2023/03/17 10:05:22;;;;;;;4.38;2.92;;;;;;;11.65;100.00;99789.00;5051523;28;20037;-70
2023/03/17 10:08:00;;;;;;;5.60;2.55;;;;;;;11.66;100.00;99771.16;5051559;28;20432;-70
2023/03/17 10:10:36;;;;;;;5.03;2.42;;;;;;;11.59;100.00;99766.31;5051471;28;20024;-70
2023/03/17 10:13:26;;;;;;;3.75;2.63;;;;;;;12.05;100.00;99751.88;5051735;28;20494;-70
2023/03/17 10:16:20;;;;;;;5.90;2.60;;;;;;;12.55;100.00;99726.13;5050059;28;20078;-69
2023/03/17 10:18:57;;;;;;;3.25;2.25;;;;;;;11.85;100.00;99700.84;5049540;28;20123;-70
2023/03/17 10:21:33;;;;;;;4.07;2.10;;;;;;;12.63;100.00;99683.31;5049952;28;20036;-70
2023/03/17 10:24:02;;;;;;;3.65;2.50;;;;;;;12.48;100.00;99620.22;5051158;28;20112;-70
2023/03/17 10:27:05;;;;;;;4.68;2.20;;;;;;;12.29;100.00;99629.47;5050754;28;20494;-70
2023/03/17 10:29:32;;;;;;;3.22;1.85;;;;;;;12.47;100.00;99631.28;5029298;28;20044;-70
2023/03/17 10:31:57;;;;;;;4.38;2.00;;;;;;;13.15;100.00;99597.75;5051279;28;20025;-70
2023/03/17 10:34:25;;;;;;;3.83;1.90;;;;;;;12.60;100.00;99599.25;5050614;28;20033;-70
2023/03/17 10:36:59;;;;;;;2.75;1.60;;;;;;;11.90;100.00;99538.50;5051199;28;20104;-71
2023/03/17 10:39:24;;;;;;;3.42;2.10;;;;;;;13.16;100.00;99569.59;5050701;28;20426;-69
2023/03/17 10:41:59;;;;;;;3.13;2.05;;;;;;;13.34;100.00;99583.25;5050395;28;20037;-69
2023/03/17 10:44:49;;;;;;;4.35;2.00;;;;;;;12.87;100.00;99544.53;5051025;28;20040;-69
2023/03/17 10:47:43;;;;;;;3.70;1.80;;;;;;;12.16;100.00;99563.72;5049975;28;20056;-69
2023/03/17 10:50:21;;;;;;;2.72;1.80;;;;;;;12.26;100.00;99574.34;5046801;28;20044;-72
2023/03/17 10:53:04;;;;;;;4.30;2.00;;;;;;;12.65;100.00;99557.41;5049712;28;20473;-71
2023/03/17 10:55:39;;;;;;;2.80;1.80;;;;;;;12.62;100.00;99551.56;5050837;28;20048;-71
2023/03/17 10:58:47;;;;;;;2.65;1.60;;;;;;;12.39;100.00;99561.94;5051076;28;20052;-71
2023/03/17 11:01:28;;;;;;;4.18;2.10;;;;;;;13.61;100.00;99538.56;5009048;28;20471;-72
2023/03/17 11:03:53;;;;;;;2.92;1.55;;;;;;;13.47;100.00;99477.13;5052369;28;20083;-71
2023/03/17 11:06:29;;;;;;;3.10;1.85;;;;;;;12.93;100.00;99488.94;5053629;28;20033;-71
2023/03/17 11:08:55;;;;;;;3.00;1.67;;;;;;;12.92;100.00;99446.47;5054651;28;20025;-71
2023/03/17 11:11:25;;;;;;;3.35;1.83;;;;;;;14.23;100.00;99443.47;5054522;28;20538;-71
2023/03/17 11:14:03;;;;;;;2.97;1.60;;;;;;;13.46;100.00;99437.13;5053648;28;20036;-71
2023/03/17 11:16:32;;;;;;;2.67;1.55;;;;;;;13.12;100.00;99496.63;5055000;28;20094;-71
2023/03/17 11:19:00;;;;;;;3.25;1.73;;;;;;;11.94;100.00;99455.94;5054627;28;20507;-71
2023/03/17 11:21:29;;;;;;;4.57;1.60;;;;;;;12.37;100.00;99512.75;5054683;28;20053;-71
2023/03/17 11:24:13;;;;;;;3.20;1.58;;;;;;;12.27;100.00;99498.72;5053650;28;20457;-72
2023/03/17 11:27:20;;;;;;;4.15;2.15;;;;;;;13.53;100.00;99469.97;5052920;28;20036;-71
2023/03/17 11:30:09;;;;;;;4.53;2.30;;;;;;;13.55;100.00;99468.16;5040167;28;20182;-71
2023/03/17 11:32:44;;;;;;;5.07;1.95;;;;;;;12.79;100.00;99444.56;5054732;28;20082;-70